sensor_id;sensor_type;location;lat;lon;timestamp;P1;durP1;ratioP1;P2;durP2;ratioP2
37164;SDS011;23057;48.554;14.454;2024-03-08T00:00:35;25.15;;;10.50;;
37164;SDS011;23057;48.554;14.454;2024-03-08T00:03:08;20.48;;;9.70;;
37164;SDS011;23057;48.554;14.454;2024-03-08T00:05:40;23.77;;;10.07;;
37164;SDS011;23057;48.554;14.454;2024-03-08T00:08:11;24.45;;;10.20;;
37164;SDS011;23057;48.554;14.454;2024-03-08T00:10:42;20.85;;;10.13;;
37164;SDS011;23057;48.554;14.454;2024-03-08T00:13:13;22.02;;;10.20;;
37164;SDS011;23057;48.554;14.454;2024-03-08T00:15:44;20.90;;;10.13;;
37164;SDS011;23057;48.554;14.454;2024-03-08T00:18:15;29.35;;;11.05;;
37164;SDS011;23057;48.554;14.454;2024-03-08T00:20:46;22.65;;;10.00;;
37164;SDS011;23057;48.554;14.454;2024-03-08T00:23:17;25.05;;;10.55;;
37164;SDS011;23057;48.554;14.454;2024-03-08T00:25:48;20.95;;;9.32;;
37164;SDS011;23057;48.554;14.454;2024-03-08T00:28:19;21.90;;;10.43;;
37164;SDS011;23057;48.554;14.454;2024-03-08T00:30:50;26.17;;;11.23;;
37164;SDS011;23057;48.554;14.454;2024-03-08T00:33:21;25.08;;;12.15;;
37164;SDS011;23057;48.554;14.454;2024-03-08T00:35:51;23.20;;;11.43;;
37164;SDS011;23057;48.554;14.454;2024-03-08T00:38:23;24.70;;;11.60;;
37164;SDS011;23057;48.554;14.454;2024-03-08T00:40:54;26.35;;;10.23;;
37164;SDS011;23057;48.554;14.454;2024-03-08T00:43:26;20.80;;;10.57;;
37164;SDS011;23057;48.554;14.454;2024-03-08T00:45:57;22.08;;;9.77;;
37164;SDS011;23057;48.554;14.454;2024-03-08T00:48:28;26.67;;;11.15;;
37164;SDS011;23057;48.554;14.454;2024-03-08T00:51:00;25.17;;;10.57;;
37164;SDS011;23057;48.554;14.454;2024-03-08T00:53:32;26.10;;;11.80;;
37164;SDS011;23057;48.554;14.454;2024-03-08T00:56:03;25.35;;;11.00;;
37164;SDS011;23057;48.554;14.454;2024-03-08T00:58:34;29.25;;;11.82;;
37164;SDS011;23057;48.554;14.454;2024-03-08T01:01:06;24.63;;;10.35;;
37164;SDS011;23057;48.554;14.454;2024-03-08T01:03:39;24.60;;;10.63;;
37164;SDS011;23057;48.554;14.454;2024-03-08T01:06:12;29.50;;;10.30;;
37164;SDS011;23057;48.554;14.454;2024-03-08T01:08:43;25.40;;;10.77;;
37164;SDS011;23057;48.554;14.454;2024-03-08T01:11:15;20.05;;;9.93;;
37164;SDS011;23057;48.554;14.454;2024-03-08T01:13:47;24.50;;;10.88;;
37164;SDS011;23057;48.554;14.454;2024-03-08T01:16:17;27.40;;;10.93;;
37164;SDS011;23057;48.554;14.454;2024-03-08T01:18:50;21.88;;;9.98;;
37164;SDS011;23057;48.554;14.454;2024-03-08T01:21:20;23.98;;;11.20;;
37164;SDS011;23057;48.554;14.454;2024-03-08T01:23:52;24.20;;;10.23;;
37164;SDS011;23057;48.554;14.454;2024-03-08T01:26:23;20.45;;;9.88;;
37164;SDS011;23057;48.554;14.454;2024-03-08T01:28:54;23.50;;;9.82;;
37164;SDS011;23057;48.554;14.454;2024-03-08T01:31:25;18.58;;;9.77;;
37164;SDS011;23057;48.554;14.454;2024-03-08T01:33:56;24.40;;;10.25;;
37164;SDS011;23057;48.554;14.454;2024-03-08T01:36:28;24.98;;;9.60;;
37164;SDS011;23057;48.554;14.454;2024-03-08T01:38:59;28.20;;;10.23;;
37164;SDS011;23057;48.554;14.454;2024-03-08T01:41:30;20.08;;;9.23;;
37164;SDS011;23057;48.554;14.454;2024-03-08T01:44:02;22.42;;;10.90;;
37164;SDS011;23057;48.554;14.454;2024-03-08T01:46:33;19.70;;;9.70;;
37164;SDS011;23057;48.554;14.454;2024-03-08T01:49:05;27.77;;;10.98;;
37164;SDS011;23057;48.554;14.454;2024-03-08T01:51:36;28.48;;;11.98;;
37164;SDS011;23057;48.554;14.454;2024-03-08T01:54:11;28.42;;;11.43;;
37164;SDS011;23057;48.554;14.454;2024-03-08T01:56:45;23.77;;;10.45;;
37164;SDS011;23057;48.554;14.454;2024-03-08T01:59:17;28.15;;;12.70;;
37164;SDS011;23057;48.554;14.454;2024-03-08T02:01:49;22.35;;;10.95;;
37164;SDS011;23057;48.554;14.454;2024-03-08T02:04:21;28.77;;;11.30;;
37164;SDS011;23057;48.554;14.454;2024-03-08T02:06:52;25.65;;;10.18;;
37164;SDS011;23057;48.554;14.454;2024-03-08T02:09:24;23.15;;;10.98;;
37164;SDS011;23057;48.554;14.454;2024-03-08T02:11:55;26.02;;;10.80;;
37164;SDS011;23057;48.554;14.454;2024-03-08T02:14:27;29.63;;;10.93;;
37164;SDS011;23057;48.554;14.454;2024-03-08T02:17:01;22.67;;;9.30;;
37164;SDS011;23057;48.554;14.454;2024-03-08T02:19:33;24.15;;;10.48;;
37164;SDS011;23057;48.554;14.454;2024-03-08T02:22:06;24.67;;;10.77;;
37164;SDS011;23057;48.554;14.454;2024-03-08T02:24:37;24.95;;;10.32;;
37164;SDS011;23057;48.554;14.454;2024-03-08T02:27:08;21.58;;;9.18;;
37164;SDS011;23057;48.554;14.454;2024-03-08T02:29:41;23.83;;;10.27;;
37164;SDS011;23057;48.554;14.454;2024-03-08T02:32:14;23.95;;;11.02;;
37164;SDS011;23057;48.554;14.454;2024-03-08T02:34:45;27.58;;;12.85;;
37164;SDS011;23057;48.554;14.454;2024-03-08T02:37:16;29.25;;;11.48;;
37164;SDS011;23057;48.554;14.454;2024-03-08T02:39:47;20.63;;;10.52;;
37164;SDS011;23057;48.554;14.454;2024-03-08T02:42:18;25.23;;;9.65;;
37164;SDS011;23057;48.554;14.454;2024-03-08T02:44:49;20.67;;;9.55;;
37164;SDS011;23057;48.554;14.454;2024-03-08T02:47:20;22.90;;;10.15;;
37164;SDS011;23057;48.554;14.454;2024-03-08T02:49:51;25.88;;;10.85;;
37164;SDS011;23057;48.554;14.454;2024-03-08T02:52:22;32.17;;;12.10;;
37164;SDS011;23057;48.554;14.454;2024-03-08T02:54:53;32.08;;;10.90;;
37164;SDS011;23057;48.554;14.454;2024-03-08T02:57:24;28.58;;;11.65;;
37164;SDS011;23057;48.554;14.454;2024-03-08T02:59:55;24.40;;;11.85;;
37164;SDS011;23057;48.554;14.454;2024-03-08T03:02:26;32.40;;;12.57;;
37164;SDS011;23057;48.554;14.454;2024-03-08T03:04:56;27.88;;;12.63;;
37164;SDS011;23057;48.554;14.454;2024-03-08T03:07:28;28.98;;;13.02;;
37164;SDS011;23057;48.554;14.454;2024-03-08T03:09:59;31.42;;;13.57;;
37164;SDS011;23057;48.554;14.454;2024-03-08T03:12:31;26.17;;;10.45;;
37164;SDS011;23057;48.554;14.454;2024-03-08T03:15:04;20.70;;;10.30;;
37164;SDS011;23057;48.554;14.454;2024-03-08T03:17:36;39.88;;;12.55;;
37164;SDS011;23057;48.554;14.454;2024-03-08T03:20:08;43.00;;;14.05;;
37164;SDS011;23057;48.554;14.454;2024-03-08T03:22:40;38.08;;;14.38;;
37164;SDS011;23057;48.554;14.454;2024-03-08T03:25:11;29.83;;;10.98;;
37164;SDS011;23057;48.554;14.454;2024-03-08T03:27:42;31.38;;;11.07;;
37164;SDS011;23057;48.554;14.454;2024-03-08T03:30:13;24.35;;;11.38;;
37164;SDS011;23057;48.554;14.454;2024-03-08T03:32:56;37.35;;;13.18;;
37164;SDS011;23057;48.554;14.454;2024-03-08T03:35:30;35.17;;;12.18;;
37164;SDS011;23057;48.554;14.454;2024-03-08T03:38:01;28.38;;;11.80;;
37164;SDS011;23057;48.554;14.454;2024-03-08T03:40:37;29.63;;;10.50;;
37164;SDS011;23057;48.554;14.454;2024-03-08T03:43:11;26.63;;;12.15;;
37164;SDS011;23057;48.554;14.454;2024-03-08T03:45:42;28.63;;;13.13;;
37164;SDS011;23057;48.554;14.454;2024-03-08T03:48:13;21.77;;;11.23;;
37164;SDS011;23057;48.554;14.454;2024-03-08T03:50:44;28.55;;;12.57;;
37164;SDS011;23057;48.554;14.454;2024-03-08T03:53:15;28.20;;;12.73;;
37164;SDS011;23057;48.554;14.454;2024-03-08T03:55:46;25.92;;;11.30;;
37164;SDS011;23057;48.554;14.454;2024-03-08T03:58:17;27.35;;;12.50;;
37164;SDS011;23057;48.554;14.454;2024-03-08T04:00:52;26.77;;;11.93;;
37164;SDS011;23057;48.554;14.454;2024-03-08T04:03:23;26.17;;;11.70;;
37164;SDS011;23057;48.554;14.454;2024-03-08T04:05:54;25.85;;;11.77;;
37164;SDS011;23057;48.554;14.454;2024-03-08T04:08:25;28.05;;;13.82;;
37164;SDS011;23057;48.554;14.454;2024-03-08T04:10:56;26.95;;;11.27;;
37164;SDS011;23057;48.554;14.454;2024-03-08T04:13:28;25.38;;;12.02;;
37164;SDS011;23057;48.554;14.454;2024-03-08T04:15:59;25.45;;;11.40;;
37164;SDS011;23057;48.554;14.454;2024-03-08T04:18:30;27.63;;;11.07;;
37164;SDS011;23057;48.554;14.454;2024-03-08T04:21:02;27.63;;;10.45;;
37164;SDS011;23057;48.554;14.454;2024-03-08T04:23:37;23.20;;;10.90;;
37164;SDS011;23057;48.554;14.454;2024-03-08T04:26:08;27.17;;;12.18;;
37164;SDS011;23057;48.554;14.454;2024-03-08T04:28:39;26.20;;;11.15;;
37164;SDS011;23057;48.554;14.454;2024-03-08T04:31:10;24.02;;;11.32;;
37164;SDS011;23057;48.554;14.454;2024-03-08T04:33:41;30.52;;;12.60;;
37164;SDS011;23057;48.554;14.454;2024-03-08T04:36:12;29.05;;;11.00;;
37164;SDS011;23057;48.554;14.454;2024-03-08T04:38:43;29.30;;;11.52;;
37164;SDS011;23057;48.554;14.454;2024-03-08T04:41:14;22.67;;;11.07;;
37164;SDS011;23057;48.554;14.454;2024-03-08T04:43:45;22.27;;;10.18;;
37164;SDS011;23057;48.554;14.454;2024-03-08T04:46:16;31.45;;;11.70;;
37164;SDS011;23057;48.554;14.454;2024-03-08T04:48:48;31.70;;;12.07;;
37164;SDS011;23057;48.554;14.454;2024-03-08T04:51:19;25.75;;;10.70;;
37164;SDS011;23057;48.554;14.454;2024-03-08T04:53:49;26.83;;;10.93;;
37164;SDS011;23057;48.554;14.454;2024-03-08T04:56:20;28.25;;;12.35;;
37164;SDS011;23057;48.554;14.454;2024-03-08T04:58:51;29.67;;;11.75;;
37164;SDS011;23057;48.554;14.454;2024-03-08T05:01:23;39.83;;;13.70;;
37164;SDS011;23057;48.554;14.454;2024-03-08T05:03:54;27.05;;;11.82;;
37164;SDS011;23057;48.554;14.454;2024-03-08T05:06:25;28.52;;;13.52;;
37164;SDS011;23057;48.554;14.454;2024-03-08T05:08:56;24.60;;;11.70;;
37164;SDS011;23057;48.554;14.454;2024-03-08T05:11:27;26.92;;;12.00;;
37164;SDS011;23057;48.554;14.454;2024-03-08T05:13:58;29.38;;;12.43;;
37164;SDS011;23057;48.554;14.454;2024-03-08T05:16:29;27.27;;;11.88;;
37164;SDS011;23057;48.554;14.454;2024-03-08T05:18:59;29.70;;;13.90;;
37164;SDS011;23057;48.554;14.454;2024-03-08T05:21:30;30.35;;;12.63;;
37164;SDS011;23057;48.554;14.454;2024-03-08T05:24:01;26.63;;;12.30;;
37164;SDS011;23057;48.554;14.454;2024-03-08T05:26:32;29.58;;;11.82;;
37164;SDS011;23057;48.554;14.454;2024-03-08T05:29:03;34.03;;;13.18;;
37164;SDS011;23057;48.554;14.454;2024-03-08T05:34:18;24.25;;;11.27;;
37164;SDS011;23057;48.554;14.454;2024-03-08T05:36:49;28.65;;;11.35;;
37164;SDS011;23057;48.554;14.454;2024-03-08T05:39:20;33.33;;;12.90;;
37164;SDS011;23057;48.554;14.454;2024-03-08T05:41:52;22.60;;;10.65;;
37164;SDS011;23057;48.554;14.454;2024-03-08T05:44:25;30.92;;;11.93;;
37164;SDS011;23057;48.554;14.454;2024-03-08T05:46:58;27.25;;;11.43;;
37164;SDS011;23057;48.554;14.454;2024-03-08T05:49:29;29.98;;;12.38;;
37164;SDS011;23057;48.554;14.454;2024-03-08T05:52:00;23.77;;;11.30;;
37164;SDS011;23057;48.554;14.454;2024-03-08T05:54:31;27.77;;;11.82;;
37164;SDS011;23057;48.554;14.454;2024-03-08T05:57:03;23.70;;;11.70;;
37164;SDS011;23057;48.554;14.454;2024-03-08T05:59:34;23.05;;;10.90;;
37164;SDS011;23057;48.554;14.454;2024-03-08T06:02:06;21.02;;;10.57;;
37164;SDS011;23057;48.554;14.454;2024-03-08T06:04:37;21.13;;;10.30;;
37164;SDS011;23057;48.554;14.454;2024-03-08T06:07:08;15.60;;;8.40;;
37164;SDS011;23057;48.554;14.454;2024-03-08T06:09:42;19.40;;;9.45;;
37164;SDS011;23057;48.554;14.454;2024-03-08T06:12:16;20.70;;;8.82;;
37164;SDS011;23057;48.554;14.454;2024-03-08T06:14:48;23.33;;;9.90;;
37164;SDS011;23057;48.554;14.454;2024-03-08T06:17:19;20.63;;;9.82;;
37164;SDS011;23057;48.554;14.454;2024-03-08T06:19:55;19.92;;;9.02;;
37164;SDS011;23057;48.554;14.454;2024-03-08T06:22:26;21.30;;;9.45;;
37164;SDS011;23057;48.554;14.454;2024-03-08T06:24:58;21.98;;;9.82;;
37164;SDS011;23057;48.554;14.454;2024-03-08T06:27:28;24.08;;;9.35;;
37164;SDS011;23057;48.554;14.454;2024-03-08T06:30:00;21.40;;;9.23;;
37164;SDS011;23057;48.554;14.454;2024-03-08T06:32:32;22.35;;;11.23;;
37164;SDS011;23057;48.554;14.454;2024-03-08T06:35:05;17.08;;;9.05;;
37164;SDS011;23057;48.554;14.454;2024-03-08T06:37:37;17.73;;;8.85;;
37164;SDS011;23057;48.554;14.454;2024-03-08T06:40:08;22.15;;;10.10;;
37164;SDS011;23057;48.554;14.454;2024-03-08T06:42:43;18.38;;;9.10;;
37164;SDS011;23057;48.554;14.454;2024-03-08T06:45:15;16.77;;;9.77;;
37164;SDS011;23057;48.554;14.454;2024-03-08T06:47:51;18.67;;;9.10;;
37164;SDS011;23057;48.554;14.454;2024-03-08T06:50:22;21.27;;;9.88;;
37164;SDS011;23057;48.554;14.454;2024-03-08T06:52:53;23.05;;;10.38;;
37164;SDS011;23057;48.554;14.454;2024-03-08T06:55:23;21.25;;;9.32;;
37164;SDS011;23057;48.554;14.454;2024-03-08T06:57:54;15.25;;;8.85;;
37164;SDS011;23057;48.554;14.454;2024-03-08T07:00:25;20.50;;;9.00;;
37164;SDS011;23057;48.554;14.454;2024-03-08T07:02:59;20.55;;;10.32;;
37164;SDS011;23057;48.554;14.454;2024-03-08T07:05:32;18.35;;;9.07;;
37164;SDS011;23057;48.554;14.454;2024-03-08T07:08:05;19.40;;;8.65;;
37164;SDS011;23057;48.554;14.454;2024-03-08T07:10:36;17.98;;;9.68;;
37164;SDS011;23057;48.554;14.454;2024-03-08T07:13:07;15.82;;;8.13;;
37164;SDS011;23057;48.554;14.454;2024-03-08T07:15:39;19.83;;;9.13;;
37164;SDS011;23057;48.554;14.454;2024-03-08T07:18:12;19.05;;;8.95;;
37164;SDS011;23057;48.554;14.454;2024-03-08T07:20:44;21.90;;;10.07;;
37164;SDS011;23057;48.554;14.454;2024-03-08T07:23:15;18.17;;;8.70;;
37164;SDS011;23057;48.554;14.454;2024-03-08T07:26:06;19.73;;;9.93;;
37164;SDS011;23057;48.554;14.454;2024-03-08T07:28:37;14.50;;;8.10;;
37164;SDS011;23057;48.554;14.454;2024-03-08T07:31:08;16.65;;;9.68;;
37164;SDS011;23057;48.554;14.454;2024-03-08T07:33:42;12.65;;;8.05;;
37164;SDS011;23057;48.554;14.454;2024-03-08T07:36:13;16.25;;;8.57;;
37164;SDS011;23057;48.554;14.454;2024-03-08T07:38:44;16.42;;;9.38;;
37164;SDS011;23057;48.554;14.454;2024-03-08T07:41:16;17.52;;;8.50;;
37164;SDS011;23057;48.554;14.454;2024-03-08T07:43:48;14.55;;;8.73;;
37164;SDS011;23057;48.554;14.454;2024-03-08T07:46:19;16.10;;;9.65;;
37164;SDS011;23057;48.554;14.454;2024-03-08T07:48:50;15.18;;;8.77;;
37164;SDS011;23057;48.554;14.454;2024-03-08T07:51:21;16.17;;;8.63;;
37164;SDS011;23057;48.554;14.454;2024-03-08T07:53:52;15.90;;;8.77;;
37164;SDS011;23057;48.554;14.454;2024-03-08T07:56:23;13.35;;;8.82;;
37164;SDS011;23057;48.554;14.454;2024-03-08T07:58:55;13.20;;;7.40;;
37164;SDS011;23057;48.554;14.454;2024-03-08T08:01:26;16.45;;;8.30;;
37164;SDS011;23057;48.554;14.454;2024-03-08T08:03:57;12.55;;;6.90;;
37164;SDS011;23057;48.554;14.454;2024-03-08T08:06:28;15.45;;;8.45;;
37164;SDS011;23057;48.554;14.454;2024-03-08T08:09:03;17.60;;;8.73;;
37164;SDS011;23057;48.554;14.454;2024-03-08T08:11:34;17.38;;;9.38;;
37164;SDS011;23057;48.554;14.454;2024-03-08T08:14:04;14.60;;;7.88;;
37164;SDS011;23057;48.554;14.454;2024-03-08T08:16:36;14.10;;;7.72;;
37164;SDS011;23057;48.554;14.454;2024-03-08T08:19:07;14.52;;;8.02;;
37164;SDS011;23057;48.554;14.454;2024-03-08T08:21:38;12.88;;;7.03;;
37164;SDS011;23057;48.554;14.454;2024-03-08T08:24:10;15.73;;;7.50;;
37164;SDS011;23057;48.554;14.454;2024-03-08T08:26:41;15.00;;;8.45;;
37164;SDS011;23057;48.554;14.454;2024-03-08T08:29:11;16.42;;;7.38;;
37164;SDS011;23057;48.554;14.454;2024-03-08T08:31:42;14.75;;;8.18;;
37164;SDS011;23057;48.554;14.454;2024-03-08T08:34:13;12.98;;;7.03;;
37164;SDS011;23057;48.554;14.454;2024-03-08T08:36:44;16.38;;;8.23;;
37164;SDS011;23057;48.554;14.454;2024-03-08T08:39:15;13.07;;;7.18;;
37164;SDS011;23057;48.554;14.454;2024-03-08T08:41:47;12.95;;;6.82;;
37164;SDS011;23057;48.554;14.454;2024-03-08T08:44:18;14.90;;;8.23;;
37164;SDS011;23057;48.554;14.454;2024-03-08T08:46:49;13.00;;;6.45;;
37164;SDS011;23057;48.554;14.454;2024-03-08T08:49:20;11.52;;;7.03;;
37164;SDS011;23057;48.554;14.454;2024-03-08T08:51:51;13.13;;;7.03;;
37164;SDS011;23057;48.554;14.454;2024-03-08T08:54:22;17.10;;;7.68;;
37164;SDS011;23057;48.554;14.454;2024-03-08T08:56:55;14.15;;;6.75;;
37164;SDS011;23057;48.554;14.454;2024-03-08T08:59:25;15.07;;;7.45;;
37164;SDS011;23057;48.554;14.454;2024-03-08T09:01:56;14.23;;;7.47;;
37164;SDS011;23057;48.554;14.454;2024-03-08T09:04:27;11.25;;;5.68;;
37164;SDS011;23057;48.554;14.454;2024-03-08T09:06:59;14.10;;;7.07;;
37164;SDS011;23057;48.554;14.454;2024-03-08T09:09:31;13.80;;;8.20;;
37164;SDS011;23057;48.554;14.454;2024-03-08T09:12:02;11.55;;;6.82;;
37164;SDS011;23057;48.554;14.454;2024-03-08T09:14:34;10.70;;;6.03;;
37164;SDS011;23057;48.554;14.454;2024-03-08T09:17:04;8.43;;;5.47;;
37164;SDS011;23057;48.554;14.454;2024-03-08T09:19:38;13.70;;;6.57;;
37164;SDS011;23057;48.554;14.454;2024-03-08T09:22:09;13.60;;;7.07;;
37164;SDS011;23057;48.554;14.454;2024-03-08T09:24:41;13.15;;;6.72;;
37164;SDS011;23057;48.554;14.454;2024-03-08T09:27:13;11.73;;;6.53;;
37164;SDS011;23057;48.554;14.454;2024-03-08T09:29:44;10.90;;;6.43;;
37164;SDS011;23057;48.554;14.454;2024-03-08T09:32:15;12.73;;;7.47;;
37164;SDS011;23057;48.554;14.454;2024-03-08T09:34:46;12.05;;;7.13;;
37164;SDS011;23057;48.554;14.454;2024-03-08T09:37:17;12.00;;;6.93;;
37164;SDS011;23057;48.554;14.454;2024-03-08T09:39:48;12.13;;;5.88;;
37164;SDS011;23057;48.554;14.454;2024-03-08T09:42:19;11.88;;;5.88;;
37164;SDS011;23057;48.554;14.454;2024-03-08T09:44:50;8.38;;;5.60;;
37164;SDS011;23057;48.554;14.454;2024-03-08T09:47:22;11.98;;;6.95;;
37164;SDS011;23057;48.554;14.454;2024-03-08T09:50:03;9.68;;;5.50;;
37164;SDS011;23057;48.554;14.454;2024-03-08T09:52:39;11.30;;;5.93;;
37164;SDS011;23057;48.554;14.454;2024-03-08T09:55:10;9.40;;;4.55;;
37164;SDS011;23057;48.554;14.454;2024-03-08T09:57:42;13.98;;;5.93;;
37164;SDS011;23057;48.554;14.454;2024-03-08T10:00:34;8.93;;;5.28;;
37164;SDS011;23057;48.554;14.454;2024-03-08T10:03:05;12.05;;;6.22;;
37164;SDS011;23057;48.554;14.454;2024-03-08T10:05:36;9.63;;;5.70;;
37164;SDS011;23057;48.554;14.454;2024-03-08T10:08:07;9.82;;;5.80;;
37164;SDS011;23057;48.554;14.454;2024-03-08T10:10:39;12.68;;;5.75;;
37164;SDS011;23057;48.554;14.454;2024-03-08T10:13:10;8.90;;;5.57;;
37164;SDS011;23057;48.554;14.454;2024-03-08T10:15:43;9.15;;;6.15;;
37164;SDS011;23057;48.554;14.454;2024-03-08T10:18:15;12.77;;;7.35;;
37164;SDS011;23057;48.554;14.454;2024-03-08T10:21:01;8.52;;;5.30;;
37164;SDS011;23057;48.554;14.454;2024-03-08T10:23:40;9.88;;;5.80;;
37164;SDS011;23057;48.554;14.454;2024-03-08T10:26:14;11.25;;;6.15;;
37164;SDS011;23057;48.554;14.454;2024-03-08T10:28:51;9.95;;;5.72;;
37164;SDS011;23057;48.554;14.454;2024-03-08T10:31:23;10.27;;;5.85;;
37164;SDS011;23057;48.554;14.454;2024-03-08T10:33:54;8.38;;;6.00;;
37164;SDS011;23057;48.554;14.454;2024-03-08T10:36:25;8.98;;;5.13;;
37164;SDS011;23057;48.554;14.454;2024-03-08T10:38:58;12.15;;;5.65;;
37164;SDS011;23057;48.554;14.454;2024-03-08T10:41:32;10.70;;;5.82;;
37164;SDS011;23057;48.554;14.454;2024-03-08T10:44:15;10.43;;;5.55;;
37164;SDS011;23057;48.554;14.454;2024-03-08T10:47:10;12.77;;;6.40;;
37164;SDS011;23057;48.554;14.454;2024-03-08T10:50:11;9.48;;;5.47;;
37164;SDS011;23057;48.554;14.454;2024-03-08T10:52:52;10.50;;;5.65;;
37164;SDS011;23057;48.554;14.454;2024-03-08T10:55:27;9.25;;;5.60;;
37164;SDS011;23057;48.554;14.454;2024-03-08T10:58:01;13.95;;;5.18;;
37164;SDS011;23057;48.554;14.454;2024-03-08T11:00:32;8.15;;;4.78;;
37164;SDS011;23057;48.554;14.454;2024-03-08T11:03:03;7.88;;;4.75;;
37164;SDS011;23057;48.554;14.454;2024-03-08T11:05:36;7.90;;;5.10;;
37164;SDS011;23057;48.554;14.454;2024-03-08T11:13:36;8.85;;;5.13;;
37164;SDS011;23057;48.554;14.454;2024-03-08T11:16:11;8.35;;;4.45;;
37164;SDS011;23057;48.554;14.454;2024-03-08T11:19:06;9.07;;;5.18;;
37164;SDS011;23057;48.554;14.454;2024-03-08T11:21:42;6.55;;;4.65;;
37164;SDS011;23057;48.554;14.454;2024-03-08T11:24:14;9.80;;;4.85;;
37164;SDS011;23057;48.554;14.454;2024-03-08T11:26:46;8.48;;;4.78;;
37164;SDS011;23057;48.554;14.454;2024-03-08T11:34:47;10.32;;;5.10;;
37164;SDS011;23057;48.554;14.454;2024-03-08T11:37:20;7.82;;;4.38;;
37164;SDS011;23057;48.554;14.454;2024-03-08T11:39:52;8.75;;;4.68;;
37164;SDS011;23057;48.554;14.454;2024-03-08T11:42:32;9.93;;;4.93;;
37164;SDS011;23057;48.554;14.454;2024-03-08T11:45:08;7.90;;;4.22;;
37164;SDS011;23057;48.554;14.454;2024-03-08T11:47:41;7.80;;;4.03;;
37164;SDS011;23057;48.554;14.454;2024-03-08T11:50:16;7.50;;;4.32;;
37164;SDS011;23057;48.554;14.454;2024-03-08T11:52:51;9.15;;;5.13;;
37164;SDS011;23057;48.554;14.454;2024-03-08T11:55:22;8.50;;;5.25;;
37164;SDS011;23057;48.554;14.454;2024-03-08T11:58:01;9.18;;;5.30;;
37164;SDS011;23057;48.554;14.454;2024-03-08T12:00:34;8.02;;;4.72;;
37164;SDS011;23057;48.554;14.454;2024-03-08T12:03:06;10.15;;;5.68;;
37164;SDS011;23057;48.554;14.454;2024-03-08T12:05:42;8.85;;;5.03;;
37164;SDS011;23057;48.554;14.454;2024-03-08T12:08:13;9.60;;;5.32;;
37164;SDS011;23057;48.554;14.454;2024-03-08T12:10:44;12.07;;;5.45;;
37164;SDS011;23057;48.554;14.454;2024-03-08T12:13:14;10.95;;;7.03;;
37164;SDS011;23057;48.554;14.454;2024-03-08T12:15:47;11.20;;;6.97;;
37164;SDS011;23057;48.554;14.454;2024-03-08T12:18:18;11.20;;;5.65;;
37164;SDS011;23057;48.554;14.454;2024-03-08T12:20:49;9.48;;;5.22;;
37164;SDS011;23057;48.554;14.454;2024-03-08T12:23:20;10.40;;;4.97;;
37164;SDS011;23057;48.554;14.454;2024-03-08T12:25:51;8.77;;;5.38;;
37164;SDS011;23057;48.554;14.454;2024-03-08T12:28:22;9.75;;;5.22;;
37164;SDS011;23057;48.554;14.454;2024-03-08T12:30:53;7.25;;;4.50;;
37164;SDS011;23057;48.554;14.454;2024-03-08T12:33:29;10.23;;;5.53;;
37164;SDS011;23057;48.554;14.454;2024-03-08T12:36:00;7.38;;;5.40;;
37164;SDS011;23057;48.554;14.454;2024-03-08T12:38:31;8.98;;;5.28;;
37164;SDS011;23057;48.554;14.454;2024-03-08T12:41:05;11.07;;;5.47;;
37164;SDS011;23057;48.554;14.454;2024-03-08T12:43:38;7.78;;;5.15;;
37164;SDS011;23057;48.554;14.454;2024-03-08T12:46:09;10.50;;;6.45;;
37164;SDS011;23057;48.554;14.454;2024-03-08T12:48:40;12.25;;;6.05;;
37164;SDS011;23057;48.554;14.454;2024-03-08T12:51:11;12.65;;;7.57;;
37164;SDS011;23057;48.554;14.454;2024-03-08T12:53:42;15.63;;;7.65;;
37164;SDS011;23057;48.554;14.454;2024-03-08T12:56:19;14.60;;;7.90;;
37164;SDS011;23057;48.554;14.454;2024-03-08T12:59:01;11.93;;;7.55;;
37164;SDS011;23057;48.554;14.454;2024-03-08T13:01:38;18.55;;;8.85;;
37164;SDS011;23057;48.554;14.454;2024-03-08T13:04:09;14.70;;;8.23;;
37164;SDS011;23057;48.554;14.454;2024-03-08T13:06:41;15.38;;;7.75;;
37164;SDS011;23057;48.554;14.454;2024-03-08T13:09:12;14.73;;;8.77;;
37164;SDS011;23057;48.554;14.454;2024-03-08T13:11:43;14.73;;;8.20;;
37164;SDS011;23057;48.554;14.454;2024-03-08T13:14:14;12.52;;;7.25;;
37164;SDS011;23057;48.554;14.454;2024-03-08T13:16:45;17.38;;;7.88;;
37164;SDS011;23057;48.554;14.454;2024-03-08T13:19:17;13.50;;;7.38;;
37164;SDS011;23057;48.554;14.454;2024-03-08T13:21:51;15.82;;;8.25;;
37164;SDS011;23057;48.554;14.454;2024-03-08T13:24:23;15.75;;;9.80;;
37164;SDS011;23057;48.554;14.454;2024-03-08T13:26:54;13.07;;;7.47;;
37164;SDS011;23057;48.554;14.454;2024-03-08T13:29:25;15.80;;;8.80;;
37164;SDS011;23057;48.554;14.454;2024-03-08T13:31:57;12.68;;;7.75;;
37164;SDS011;23057;48.554;14.454;2024-03-08T13:34:31;13.13;;;7.35;;
37164;SDS011;23057;48.554;14.454;2024-03-08T13:37:05;16.15;;;8.07;;
37164;SDS011;23057;48.554;14.454;2024-03-08T13:39:36;20.35;;;10.05;;
37164;SDS011;23057;48.554;14.454;2024-03-08T13:42:13;16.02;;;9.38;;
37164;SDS011;23057;48.554;14.454;2024-03-08T13:44:46;14.85;;;9.25;;
37164;SDS011;23057;48.554;14.454;2024-03-08T13:47:17;17.02;;;9.07;;
37164;SDS011;23057;48.554;14.454;2024-03-08T13:49:48;14.15;;;7.78;;
37164;SDS011;23057;48.554;14.454;2024-03-08T13:52:20;12.68;;;7.95;;
37164;SDS011;23057;48.554;14.454;2024-03-08T13:54:51;13.18;;;7.22;;
37164;SDS011;23057;48.554;14.454;2024-03-08T13:57:22;16.30;;;9.80;;
37164;SDS011;23057;48.554;14.454;2024-03-08T13:59:53;15.60;;;8.18;;
37164;SDS011;23057;48.554;14.454;2024-03-08T14:02:25;15.73;;;7.68;;
37164;SDS011;23057;48.554;14.454;2024-03-08T14:05:00;15.65;;;8.65;;
37164;SDS011;23057;48.554;14.454;2024-03-08T14:07:32;17.25;;;8.55;;
37164;SDS011;23057;48.554;14.454;2024-03-08T14:10:03;17.50;;;8.48;;
37164;SDS011;23057;48.554;14.454;2024-03-08T14:12:37;16.75;;;8.35;;
37164;SDS011;23057;48.554;14.454;2024-03-08T14:15:08;11.63;;;6.55;;
37164;SDS011;23057;48.554;14.454;2024-03-08T14:17:41;9.80;;;6.35;;
37164;SDS011;23057;48.554;14.454;2024-03-08T14:20:11;12.82;;;6.53;;
37164;SDS011;23057;48.554;14.454;2024-03-08T14:22:43;11.70;;;8.38;;
37164;SDS011;23057;48.554;14.454;2024-03-08T14:25:14;12.98;;;7.05;;
37164;SDS011;23057;48.554;14.454;2024-03-08T14:27:47;10.85;;;6.65;;
37164;SDS011;23057;48.554;14.454;2024-03-08T14:30:20;14.93;;;8.30;;
37164;SDS011;23057;48.554;14.454;2024-03-08T14:33:08;13.07;;;6.47;;
37164;SDS011;23057;48.554;14.454;2024-03-08T14:35:39;14.18;;;6.95;;
37164;SDS011;23057;48.554;14.454;2024-03-08T14:38:11;13.95;;;6.82;;
37164;SDS011;23057;48.554;14.454;2024-03-08T14:40:43;11.38;;;6.75;;
37164;SDS011;23057;48.554;14.454;2024-03-08T14:43:17;16.88;;;8.90;;
37164;SDS011;23057;48.554;14.454;2024-03-08T14:45:51;16.08;;;7.55;;
37164;SDS011;23057;48.554;14.454;2024-03-08T14:48:22;12.85;;;6.53;;
37164;SDS011;23057;48.554;14.454;2024-03-08T14:50:53;14.93;;;7.68;;
37164;SDS011;23057;48.554;14.454;2024-03-08T14:53:24;11.25;;;6.38;;
37164;SDS011;23057;48.554;14.454;2024-03-08T14:55:55;13.70;;;6.78;;
37164;SDS011;23057;48.554;14.454;2024-03-08T14:58:28;11.40;;;7.65;;
37164;SDS011;23057;48.554;14.454;2024-03-08T15:00:58;12.90;;;7.57;;